Terminal Aerodrome Forecast
Issued by NWS

Current Version | Previous Version | Graphics & Text | Print | Product List | Glossary On
Versions: 1 2 3 4 5 6 7 8 9 10 11 12 13 14 15 16 17 18 19 20 21 22 23
000
FTUS41 KRLX 290821 AAA
TAFCKB
TAF AMD
KCKB 290821Z 2908/3006 00000KT P6SM SKC
      TEMPO 2908/2912 1SM BR SCT002
     FM291200 VRB03KT P6SM SCT140
     FM291900 20005KT P6SM BKN080
     FM300500 18005KT 6SM BR BKN040=

USA.gov is the U.S. government's official web portal to all federal, state and local government web resources and services.